createdAt,value
2023-01-30T00:00:42.688Z,25.08
2023-01-30T00:01:45.539Z,23.33
2023-01-30T00:02:47.843Z,24.65
2023-01-30T00:03:50.170Z,23.88
2023-01-30T00:04:52.384Z,23.30
2023-01-30T00:05:54.670Z,24.10
2023-01-30T00:06:56.932Z,23.33
2023-01-30T00:07:59.097Z,25.85
2023-01-30T00:09:01.353Z,22.67
2023-01-30T00:10:03.668Z,22.83
2023-01-30T00:11:11.703Z,23.30
2023-01-30T00:12:13.948Z,25.27
2023-01-30T00:13:16.435Z,23.98
2023-01-30T00:14:18.660Z,23.73
2023-01-30T00:15:20.887Z,24.33
2023-01-30T00:16:23.502Z,24.17
2023-01-30T00:17:25.844Z,23.77
2023-01-30T00:18:28.373Z,26.58
2023-01-30T00:19:30.598Z,26.58
2023-01-30T00:20:33.205Z,26.60
2023-01-30T00:21:35.593Z,24.27
2023-01-30T00:22:37.897Z,24.83
2023-01-30T00:23:40.464Z,25.63
2023-01-30T00:24:42.767Z,24.80
2023-01-30T00:25:46.626Z,25.45
2023-01-30T00:26:49.011Z,24.63
2023-01-30T00:27:51.338Z,26.55
2023-01-30T00:28:53.841Z,28.35
2023-01-30T00:30:02.843Z,23.90
2023-01-30T00:31:07.244Z,25.52
2023-01-30T00:32:09.506Z,27.00
2023-01-30T00:33:11.824Z,26.77
2023-01-30T00:34:14.178Z,24.08
2023-01-30T00:35:16.462Z,29.17
2023-01-30T00:36:18.681Z,25.70
2023-01-30T00:37:20.864Z,26.70
2023-01-30T00:38:24.021Z,24.35
2023-01-30T00:39:26.602Z,26.73
2023-01-30T00:40:30.592Z,27.63
2023-01-30T00:41:51.342Z,29.65
2023-01-30T00:44:37.960Z,26.35
2023-01-30T00:46:01.494Z,28.00
2023-01-30T00:47:06.971Z,31.00
2023-01-30T00:48:09.252Z,28.75
2023-01-30T00:49:11.588Z,29.50
2023-01-30T00:50:13.936Z,30.52
2023-01-30T00:51:18.816Z,35.15
2023-01-30T00:52:21.054Z,29.92
2023-01-30T00:53:23.366Z,30.10
2023-01-30T00:54:25.568Z,27.50
2023-01-30T00:55:27.829Z,28.70
2023-01-30T00:56:30.073Z,29.48
2023-01-30T00:57:33.044Z,29.45
2023-01-30T00:58:35.245Z,27.50
2023-01-30T00:59:38.750Z,32.08
2023-01-30T01:00:40.954Z,28.40
2023-01-30T01:01:43.252Z,29.15
2023-01-30T01:02:48.428Z,28.70
2023-01-30T01:03:50.767Z,29.48
2023-01-30T01:04:53.013Z,28.60
2023-01-30T01:05:55.360Z,33.90
2023-01-30T01:06:57.596Z,29.80
2023-01-30T01:07:59.803Z,29.55
2023-01-30T01:09:02.709Z,33.45
2023-01-30T01:10:05.948Z,29.27
2023-01-30T01:11:08.309Z,29.00
2023-01-30T01:12:10.532Z,29.80
2023-01-30T01:13:12.773Z,29.33
2023-01-30T01:14:15.006Z,29.70
2023-01-30T01:15:17.671Z,30.10
2023-01-30T01:16:20.646Z,30.30
2023-01-30T01:17:22.997Z,29.15
2023-01-30T01:18:25.388Z,29.23
2023-01-30T01:19:27.746Z,29.67
2023-01-30T01:20:30.029Z,28.83
2023-01-30T01:21:32.339Z,29.73
2023-01-30T01:22:34.545Z,29.45
2023-01-30T01:23:36.780Z,33.60
2023-01-30T01:24:38.943Z,28.88
2023-01-30T01:25:41.156Z,29.17
2023-01-30T01:26:44.179Z,29.63
2023-01-30T01:27:47.010Z,31.20
2023-01-30T01:28:59.234Z,30.55
2023-01-30T01:30:02.426Z,28.27
2023-01-30T01:31:09.557Z,28.73
2023-01-30T01:32:12.008Z,28.75
2023-01-30T01:33:15.855Z,30.92
2023-01-30T01:34:18.103Z,31.08
2023-01-30T01:35:20.586Z,29.60
2023-01-30T01:36:51.744Z,31.05
2023-01-30T01:37:46.203Z,30.05
2023-01-30T01:38:48.471Z,30.77
2023-01-30T01:40:09.604Z,31.83
2023-01-30T01:41:13.323Z,28.58
2023-01-30T01:42:15.846Z,28.95
2023-01-30T01:43:21.525Z,31.45
2023-01-30T01:44:24.887Z,29.98
2023-01-30T01:45:27.128Z,29.20
2023-01-30T01:46:31.879Z,31.10
2023-01-30T01:47:35.251Z,32.60
2023-01-30T01:48:47.103Z,32.85
2023-01-30T01:49:49.441Z,34.75
2023-01-30T01:50:57.214Z,32.10
2023-01-30T01:52:11.483Z,35.72
2023-01-30T01:53:17.700Z,33.90
2023-01-30T01:54:33.699Z,31.38
2023-01-30T01:55:37.298Z,32.40
2023-01-30T01:56:45.843Z,31.27
2023-01-30T01:57:53.803Z,30.35
2023-01-30T01:59:01.596Z,31.27
2023-01-30T02:02:14.379Z,30.02
2023-01-30T02:03:23.149Z,29.38
2023-01-30T02:04:47.842Z,30.33
2023-01-30T02:05:55.549Z,29.15
2023-01-30T02:06:59.640Z,30.38
2023-01-30T02:08:43.773Z,26.63
2023-01-30T02:09:46.351Z,29.13
2023-01-30T02:10:58.394Z,27.23
2023-01-30T02:12:03.773Z,25.58
2023-01-30T02:13:07.516Z,26.50
2023-01-30T02:14:12.116Z,30.83
2023-01-30T02:15:14.335Z,27.45
2023-01-30T02:16:17.982Z,27.58
2023-01-30T02:17:20.541Z,27.30
2023-01-30T02:18:23.203Z,27.42
2023-01-30T02:19:39.333Z,29.48
2023-01-30T02:20:56.199Z,26.80
2023-01-30T02:22:16.746Z,26.80
2023-01-30T02:23:21.715Z,27.63
2023-01-30T02:24:55.343Z,26.40
2023-01-30T02:26:23.958Z,25.63
2023-01-30T02:28:03.751Z,29.63
2023-01-30T02:29:14.781Z,26.08
2023-01-30T02:30:36.068Z,28.35
2023-01-30T02:31:50.250Z,27.38
2023-01-30T02:33:30.685Z,28.35
2023-01-30T02:34:57.514Z,27.77
2023-01-30T02:36:05.613Z,28.80
2023-01-30T02:37:26.258Z,27.58
2023-01-30T02:38:50.746Z,28.95
2023-01-30T02:40:35.581Z,29.00
2023-01-30T02:41:49.563Z,26.60
2023-01-30T02:42:57.642Z,27.05
2023-01-30T02:44:09.827Z,27.20
2023-01-30T02:45:30.677Z,26.15
2023-01-30T02:46:36.207Z,26.35
2023-01-30T02:47:49.085Z,26.92
2023-01-30T02:48:59.457Z,24.27
2023-01-30T02:50:13.275Z,28.65
2023-01-30T02:51:22.015Z,23.63
2023-01-30T02:52:25.016Z,23.30
2023-01-30T02:53:32.871Z,25.13
2023-01-30T02:54:35.224Z,27.65
2023-01-30T02:55:41.837Z,25.17
2023-01-30T02:56:54.670Z,25.92
2023-01-30T02:57:58.389Z,27.20
2023-01-30T02:59:06.869Z,23.10
2023-01-30T03:00:11.493Z,24.88
2023-01-30T03:01:37.569Z,25.42
2023-01-30T03:03:30.372Z,26.38
2023-01-30T03:04:53.557Z,25.75
2023-01-30T03:06:26.818Z,27.05
2023-01-30T03:07:41.188Z,27.27
2023-01-30T03:09:05.128Z,25.55
2023-01-30T03:10:35.006Z,23.50
2023-01-30T03:11:47.896Z,25.30
2023-01-30T03:13:14.772Z,24.92
2023-01-30T03:14:24.093Z,20.75
2023-01-30T03:15:41.905Z,24.23
2023-01-30T03:16:44.748Z,21.67
2023-01-30T03:17:48.041Z,21.98
2023-01-30T03:18:52.273Z,20.25
2023-01-30T03:19:55.372Z,20.83
2023-01-30T03:21:04.498Z,20.13
2023-01-30T03:22:06.948Z,20.90
2023-01-30T03:23:09.343Z,19.90
2023-01-30T03:24:12.966Z,21.55
2023-01-30T03:25:20.859Z,21.05
2023-01-30T03:26:29.121Z,20.40
2023-01-30T03:27:32.122Z,20.55
2023-01-30T03:28:35.304Z,20.35
2023-01-30T03:29:38.488Z,21.60
2023-01-30T03:30:41.394Z,22.08
2023-01-30T03:31:45.347Z,20.98
2023-01-30T03:32:47.802Z,21.23
2023-01-30T03:33:50.338Z,21.08
2023-01-30T03:34:52.793Z,18.77
2023-01-30T03:35:55.578Z,18.98
2023-01-30T03:36:59.308Z,16.83
2023-01-30T03:38:02.273Z,21.60
2023-01-30T03:39:05.136Z,22.15
2023-01-30T03:40:08.241Z,21.05
2023-01-30T03:41:10.648Z,21.58
2023-01-30T03:42:15.152Z,20.33
2023-01-30T03:43:18.224Z,18.67
2023-01-30T03:44:20.691Z,20.25
2023-01-30T03:45:22.867Z,20.35
2023-01-30T03:46:25.242Z,18.55
2023-01-30T03:47:27.587Z,18.75
2023-01-30T03:48:31.068Z,19.15
2023-01-30T03:49:33.559Z,21.65
2023-01-30T03:50:36.181Z,20.08
2023-01-30T03:51:38.386Z,18.27
2023-01-30T03:52:40.612Z,19.83
2023-01-30T03:53:46.634Z,19.67
2023-01-30T03:54:48.967Z,20.45
2023-01-30T03:55:51.418Z,18.48
2023-01-30T03:56:59.498Z,19.70
2023-01-30T03:58:01.748Z,16.98
2023-01-30T03:59:07.164Z,18.05
2023-01-30T04:00:16.727Z,17.67
2023-01-30T04:01:19.067Z,16.30
2023-01-30T04:02:23.370Z,16.65
2023-01-30T04:03:26.344Z,19.58
2023-01-30T04:04:33.049Z,16.83
2023-01-30T04:05:36.080Z,20.75
2023-01-30T04:06:41.388Z,18.67
2023-01-30T04:07:43.813Z,18.27
2023-01-30T04:08:46.769Z,17.58
2023-01-30T04:10:01.392Z,16.73
2023-01-30T04:11:03.856Z,18.05
2023-01-30T04:12:06.468Z,19.13
2023-01-30T04:13:14.240Z,18.20
2023-01-30T04:14:17.187Z,17.42
2023-01-30T04:15:45.899Z,18.80
2023-01-30T04:17:06.451Z,19.38
2023-01-30T04:18:43.620Z,19.30
2023-01-30T04:19:53.253Z,18.60
2023-01-30T04:20:55.567Z,17.98
2023-01-30T04:22:05.036Z,22.75
2023-01-30T04:23:08.093Z,18.40
2023-01-30T04:24:10.596Z,18.00
2023-01-30T04:25:12.820Z,20.52
2023-01-30T04:26:15.393Z,18.73
2023-01-30T04:27:17.674Z,18.48
2023-01-30T04:28:38.826Z,18.45
2023-01-30T04:29:42.402Z,19.23
2023-01-30T04:30:46.689Z,17.45
2023-01-30T04:32:09.964Z,17.05
2023-01-30T04:33:13.949Z,16.58
2023-01-30T04:34:16.766Z,20.40
2023-01-30T04:35:19.415Z,17.30
2023-01-30T04:36:22.190Z,19.02
2023-01-30T04:37:25.161Z,17.92
2023-01-30T04:38:29.190Z,16.52
2023-01-30T04:39:32.079Z,16.77
2023-01-30T04:40:34.494Z,18.05
2023-01-30T04:41:36.765Z,16.08
2023-01-30T04:42:40.072Z,14.75
2023-01-30T04:44:08.417Z,16.25
2023-01-30T04:45:24.036Z,14.25
2023-01-30T04:46:27.422Z,15.35
2023-01-30T04:47:30.925Z,15.18
2023-01-30T04:48:33.218Z,15.50
2023-01-30T04:49:37.216Z,17.15
2023-01-30T04:50:43.053Z,13.40
2023-01-30T04:51:45.327Z,14.32
2023-01-30T04:52:47.522Z,15.75
2023-01-30T04:53:49.818Z,15.52
2023-01-30T04:54:52.093Z,14.07
2023-01-30T04:55:54.462Z,16.17
2023-01-30T04:56:57.675Z,17.27
2023-01-30T04:58:00.196Z,17.88
2023-01-30T04:59:02.508Z,15.27
2023-01-30T05:00:11.187Z,15.75
2023-01-30T05:01:25.873Z,14.80
2023-01-30T05:02:28.095Z,15.75
2023-01-30T05:03:30.336Z,16.67
2023-01-30T05:04:32.734Z,16.58
2023-01-30T05:05:34.949Z,14.88
2023-01-30T05:06:37.266Z,15.52
2023-01-30T05:07:39.857Z,16.40
2023-01-30T05:08:42.045Z,14.68
2023-01-30T05:09:44.260Z,21.00
2023-01-30T05:10:46.538Z,16.27
2023-01-30T05:11:48.698Z,15.77
2023-01-30T05:12:50.916Z,15.70
2023-01-30T05:13:53.449Z,14.77
2023-01-30T05:14:55.708Z,19.95
2023-01-30T05:15:57.948Z,17.17
2023-01-30T05:17:00.267Z,16.88
2023-01-30T05:18:02.635Z,16.17
2023-01-30T05:19:04.868Z,14.73
2023-01-30T05:20:09.275Z,15.95
2023-01-30T05:21:14.534Z,19.02
2023-01-30T05:22:16.779Z,19.90
2023-01-30T05:23:19.028Z,24.70
2023-01-30T05:24:21.332Z,15.65
2023-01-30T05:25:23.553Z,17.63
2023-01-30T05:26:25.886Z,17.52
2023-01-30T05:27:28.236Z,18.98
2023-01-30T05:28:31.030Z,18.60
2023-01-30T05:29:33.196Z,17.98
2023-01-30T05:30:35.492Z,18.70
2023-01-30T05:31:38.813Z,16.98
2023-01-30T05:32:41.064Z,17.92
2023-01-30T05:33:46.000Z,16.45
2023-01-30T05:34:48.663Z,17.75
2023-01-30T05:35:50.920Z,18.00
2023-01-30T05:36:53.091Z,15.27
2023-01-30T05:37:55.251Z,15.27
2023-01-30T05:38:57.621Z,15.98
2023-01-30T05:39:59.966Z,17.25
2023-01-30T05:41:07.276Z,17.77
2023-01-30T05:42:09.477Z,15.50
2023-01-30T05:43:11.668Z,18.15
2023-01-30T05:44:13.932Z,15.05
2023-01-30T05:45:16.883Z,18.25
2023-01-30T05:46:19.892Z,15.98
2023-01-30T05:47:22.151Z,16.60
2023-01-30T05:48:25.043Z,16.30
2023-01-30T05:49:27.269Z,14.85
2023-01-30T05:50:30.271Z,15.60
2023-01-30T05:51:33.602Z,15.35
2023-01-30T05:52:35.813Z,16.17
2023-01-30T05:53:38.033Z,14.40
2023-01-30T05:54:40.217Z,14.50
2023-01-30T05:55:43.794Z,14.48
2023-01-30T05:56:50.240Z,16.20
2023-01-30T05:57:52.483Z,14.40
2023-01-30T05:58:56.218Z,16.35
2023-01-30T05:59:58.417Z,14.57
2023-01-30T06:01:06.716Z,14.45
2023-01-30T06:02:11.063Z,14.52
2023-01-30T06:03:13.352Z,17.45
2023-01-30T06:04:15.669Z,13.65
2023-01-30T06:05:18.602Z,14.60
2023-01-30T06:06:21.904Z,14.85
2023-01-30T06:07:24.137Z,15.20
2023-01-30T06:08:26.564Z,16.90
2023-01-30T06:09:28.735Z,14.10
2023-01-30T06:10:30.932Z,15.52
2023-01-30T06:11:33.167Z,14.43
2023-01-30T06:12:35.440Z,15.90
2023-01-30T06:13:38.727Z,17.13
2023-01-30T06:14:40.947Z,14.65
2023-01-30T06:15:43.300Z,15.00
2023-01-30T06:16:45.653Z,13.57
2023-01-30T06:17:47.972Z,16.23
2023-01-30T06:18:50.267Z,15.10
2023-01-30T06:19:52.539Z,15.50
2023-01-30T06:20:55.222Z,12.57
2023-01-30T06:21:57.538Z,15.02
2023-01-30T06:22:59.722Z,15.55
2023-01-30T06:24:02.235Z,13.73
2023-01-30T06:25:05.059Z,13.15
2023-01-30T06:26:09.215Z,15.10
2023-01-30T06:27:11.600Z,13.65
2023-01-30T06:28:15.014Z,14.48
2023-01-30T06:29:17.232Z,14.70
2023-01-30T06:30:19.539Z,12.65
2023-01-30T06:31:21.853Z,14.73
2023-01-30T06:32:24.137Z,14.48
2023-01-30T06:33:26.343Z,13.70
2023-01-30T06:34:28.598Z,13.68
2023-01-30T06:35:30.771Z,20.35
2023-01-30T06:36:33.100Z,13.73
2023-01-30T06:37:35.300Z,13.13
2023-01-30T06:38:37.679Z,17.75
2023-01-30T06:39:39.930Z,13.70
2023-01-30T06:40:45.032Z,16.60
2023-01-30T06:41:47.230Z,13.60
2023-01-30T06:42:49.955Z,13.07
2023-01-30T06:43:52.331Z,14.05
2023-01-30T06:44:54.557Z,11.55
2023-01-30T06:45:59.003Z,14.55
2023-01-30T06:47:01.192Z,14.82
2023-01-30T06:48:03.811Z,13.07
2023-01-30T06:49:06.069Z,14.02
2023-01-30T06:50:08.650Z,12.00
2023-01-30T06:51:10.925Z,14.98
2023-01-30T06:52:13.130Z,14.32
2023-01-30T06:53:15.375Z,14.73
2023-01-30T06:54:17.574Z,14.35
2023-01-30T06:55:21.948Z,13.85
2023-01-30T06:56:24.176Z,14.57
2023-01-30T06:57:26.388Z,12.88
2023-01-30T06:58:28.643Z,13.50
2023-01-30T06:59:30.870Z,13.68
2023-01-30T07:00:33.761Z,13.55
2023-01-30T07:01:36.121Z,13.23
2023-01-30T07:02:38.617Z,15.13
2023-01-30T07:03:40.775Z,13.00
2023-01-30T07:04:42.945Z,12.63
2023-01-30T07:05:47.139Z,14.32
2023-01-30T07:06:49.936Z,14.57
2023-01-30T07:07:52.151Z,13.90
2023-01-30T07:08:56.295Z,13.07
2023-01-30T07:10:07.966Z,16.20
2023-01-30T07:11:11.011Z,14.98
2023-01-30T07:12:13.200Z,13.85
2023-01-30T07:13:15.857Z,14.32
2023-01-30T07:14:18.125Z,13.82
2023-01-30T07:15:20.643Z,15.00
2023-01-30T07:16:29.012Z,13.38
2023-01-30T07:17:31.255Z,13.77
2023-01-30T07:18:33.495Z,14.80
2023-01-30T07:19:35.688Z,13.48
2023-01-30T07:20:38.047Z,12.07
2023-01-30T07:21:40.301Z,14.50
2023-01-30T07:22:42.545Z,18.20
2023-01-30T07:23:46.855Z,15.32
2023-01-30T07:24:49.050Z,11.95
2023-01-30T07:25:51.466Z,15.45
2023-01-30T07:26:53.739Z,12.05
2023-01-30T07:28:02.546Z,14.35
2023-01-30T07:29:04.792Z,12.23
2023-01-30T07:30:07.515Z,11.90
2023-01-30T07:31:09.777Z,11.50
2023-01-30T07:32:19.065Z,15.90
2023-01-30T07:33:21.597Z,14.35
2023-01-30T07:34:23.750Z,12.38
2023-01-30T07:35:28.993Z,13.82
2023-01-30T07:36:33.547Z,13.80
2023-01-30T07:37:35.792Z,13.93
2023-01-30T07:38:38.065Z,14.07
2023-01-30T07:39:40.290Z,12.57
2023-01-30T07:40:42.520Z,12.63
2023-01-30T07:41:44.741Z,12.63
2023-01-30T07:42:57.096Z,12.55
2023-01-30T07:43:59.265Z,14.40
2023-01-30T07:45:01.461Z,13.10
2023-01-30T07:46:03.958Z,13.80
2023-01-30T07:47:06.417Z,14.73
2023-01-30T07:48:10.931Z,13.20
2023-01-30T07:49:13.134Z,12.20
2023-01-30T07:50:16.170Z,14.90
2023-01-30T07:51:18.678Z,14.30
2023-01-30T07:52:20.842Z,14.80
2023-01-30T07:53:23.897Z,13.40
2023-01-30T07:54:26.794Z,12.63
2023-01-30T07:55:28.951Z,13.07
2023-01-30T07:56:31.218Z,13.20
2023-01-30T07:57:33.485Z,15.05
2023-01-30T07:58:35.949Z,14.40
2023-01-30T07:59:38.181Z,13.15
2023-01-30T08:00:40.497Z,13.30
2023-01-30T08:01:42.743Z,13.30
2023-01-30T08:02:45.015Z,10.70
2023-01-30T08:03:49.134Z,11.45
2023-01-30T08:04:51.424Z,11.88
2023-01-30T08:05:54.134Z,14.02
2023-01-30T08:06:56.470Z,11.25
2023-01-30T08:08:00.700Z,11.40
2023-01-30T08:09:03.010Z,10.77
2023-01-30T08:10:06.015Z,13.68
2023-01-30T08:11:08.312Z,12.50
2023-01-30T08:12:10.535Z,11.38
2023-01-30T08:13:12.838Z,10.25
2023-01-30T08:14:15.113Z,11.40
2023-01-30T08:15:17.355Z,10.07
2023-01-30T08:16:19.715Z,11.45
2023-01-30T08:17:22.023Z,11.00
2023-01-30T08:18:24.279Z,10.07
2023-01-30T08:19:26.552Z,10.32
2023-01-30T08:20:28.976Z,10.90
2023-01-30T08:21:31.209Z,10.30
2023-01-30T08:22:33.453Z,11.50
2023-01-30T08:23:35.879Z,19.98
2023-01-30T08:24:38.105Z,10.10
2023-01-30T08:25:40.356Z,13.27
2023-01-30T08:26:42.628Z,10.27
2023-01-30T08:27:44.950Z,15.48
2023-01-30T08:28:47.184Z,11.07
2023-01-30T08:29:49.437Z,9.23
2023-01-30T08:30:53.306Z,9.15
2023-01-30T08:31:59.081Z,10.25
2023-01-30T08:33:01.376Z,10.45
2023-01-30T08:34:03.689Z,9.23
2023-01-30T08:35:06.333Z,9.57
2023-01-30T08:36:09.070Z,10.77
2023-01-30T08:37:11.381Z,15.68
2023-01-30T08:38:14.327Z,11.65
2023-01-30T08:39:17.166Z,8.93
2023-01-30T08:40:19.842Z,11.93
2023-01-30T08:41:22.278Z,9.40
2023-01-30T08:42:24.548Z,10.30
2023-01-30T08:43:27.443Z,12.77
2023-01-30T08:44:29.673Z,10.98
2023-01-30T08:45:32.232Z,10.98
2023-01-30T08:46:34.582Z,9.20
2023-01-30T08:47:37.169Z,8.65
2023-01-30T08:48:49.620Z,9.25
2023-01-30T08:49:53.007Z,8.30
2023-01-30T08:50:56.472Z,10.65
2023-01-30T08:51:58.752Z,8.25
2023-01-30T08:53:09.002Z,9.23
2023-01-30T08:54:11.398Z,8.52
2023-01-30T08:55:13.626Z,9.23
2023-01-30T08:56:16.039Z,10.30
2023-01-30T08:57:18.406Z,9.57
2023-01-30T08:58:21.498Z,8.95
2023-01-30T08:59:23.766Z,9.18
2023-01-30T09:00:27.026Z,10.02
2023-01-30T09:01:29.688Z,10.68
2023-01-30T09:02:32.239Z,8.63
2023-01-30T09:03:34.627Z,9.05
2023-01-30T09:04:36.885Z,10.05
2023-01-30T09:05:39.146Z,8.52
2023-01-30T09:06:41.415Z,11.90
2023-01-30T09:07:43.644Z,12.40
2023-01-30T09:08:45.933Z,11.77
2023-01-30T09:09:48.614Z,8.23
2023-01-30T09:10:50.784Z,10.80
2023-01-30T09:11:53.042Z,8.52
2023-01-30T09:12:55.524Z,8.57
2023-01-30T09:13:57.873Z,9.77
2023-01-30T09:15:00.432Z,10.85
2023-01-30T09:16:04.057Z,9.50
2023-01-30T09:17:06.324Z,9.02
2023-01-30T09:18:08.558Z,8.68
2023-01-30T09:19:10.788Z,7.75
2023-01-30T09:20:13.260Z,8.70
2023-01-30T09:21:15.703Z,8.35
2023-01-30T09:22:18.003Z,8.80
2023-01-30T09:23:20.259Z,9.55
2023-01-30T09:24:26.840Z,8.23
2023-01-30T09:25:29.161Z,9.43
2023-01-30T09:26:31.460Z,8.73
2023-01-30T09:27:33.700Z,9.75
2023-01-30T09:28:35.971Z,8.32
2023-01-30T09:29:38.188Z,8.10
2023-01-30T09:30:40.481Z,9.05
2023-01-30T09:31:42.787Z,10.13
2023-01-30T09:32:45.488Z,9.30
2023-01-30T09:33:48.045Z,8.48
2023-01-30T09:34:50.293Z,16.65
2023-01-30T09:35:52.920Z,9.27
2023-01-30T09:36:56.685Z,7.88
2023-01-30T09:37:59.246Z,9.63
2023-01-30T09:39:01.505Z,11.60
2023-01-30T09:40:04.519Z,10.35
2023-01-30T09:41:06.723Z,10.30
2023-01-30T09:42:24.688Z,9.15
2023-01-30T09:43:36.477Z,8.63
2023-01-30T09:44:47.475Z,8.95
2023-01-30T09:46:19.090Z,11.35
2023-01-30T09:47:39.405Z,10.02
2023-01-30T09:48:53.669Z,11.98
2023-01-30T09:50:11.488Z,8.65
2023-01-30T09:51:30.956Z,8.75
2023-01-30T09:53:06.762Z,7.90
2023-01-30T09:54:22.164Z,9.13
2023-01-30T09:55:28.000Z,12.07
2023-01-30T09:56:30.859Z,9.93
2023-01-30T09:57:33.231Z,10.32
2023-01-30T09:58:56.597Z,9.38
2023-01-30T10:00:04.852Z,8.50
2023-01-30T10:01:26.749Z,10.00
2023-01-30T10:02:28.927Z,9.27
2023-01-30T10:03:39.682Z,8.35
2023-01-30T10:05:00.649Z,9.15
2023-01-30T10:06:12.661Z,10.02
2023-01-30T10:07:36.364Z,9.15
2023-01-30T10:09:01.477Z,10.68
2023-01-30T10:10:17.767Z,9.18
2023-01-30T10:11:44.091Z,10.90
2023-01-30T10:13:14.883Z,8.88
2023-01-30T10:14:36.122Z,7.65
2023-01-30T10:15:50.529Z,11.27
2023-01-30T10:17:11.354Z,9.07
2023-01-30T10:18:20.277Z,10.85
2023-01-30T10:19:50.346Z,10.07
2023-01-30T10:21:08.958Z,11.52
2023-01-30T10:22:22.994Z,10.20
2023-01-30T10:23:44.541Z,11.02
2023-01-30T10:25:21.891Z,9.68
2023-01-30T10:26:27.490Z,10.02
2023-01-30T10:27:31.542Z,11.23
2023-01-30T10:28:55.579Z,16.98
2023-01-30T10:30:06.531Z,11.13
2023-01-30T10:31:13.974Z,11.52
2023-01-30T10:32:22.537Z,9.63
2023-01-30T10:33:28.637Z,10.85
2023-01-30T10:34:41.247Z,8.48
2023-01-30T10:35:44.390Z,10.23
2023-01-30T10:36:56.020Z,9.13
2023-01-30T10:38:13.044Z,10.47
2023-01-30T10:39:36.868Z,10.02
2023-01-30T10:40:54.733Z,10.45
2023-01-30T10:42:08.953Z,9.43
2023-01-30T10:43:48.677Z,9.27
2023-01-30T10:44:52.839Z,9.18
2023-01-30T10:46:36.596Z,10.25
2023-01-30T10:48:06.946Z,8.60
2023-01-30T10:49:18.490Z,11.13
2023-01-30T10:50:44.829Z,8.95
2023-01-30T10:52:00.289Z,9.13
2023-01-30T10:53:21.364Z,9.13
2023-01-30T10:54:41.701Z,8.68
2023-01-30T10:56:06.801Z,8.82
2023-01-30T10:57:32.147Z,10.85
2023-01-30T10:58:54.182Z,9.90
2023-01-30T11:00:07.986Z,10.25
2023-01-30T11:01:32.460Z,9.68
2023-01-30T11:02:51.884Z,10.50
2023-01-30T11:04:06.674Z,9.65
2023-01-30T11:05:18.422Z,9.88
2023-01-30T11:06:25.139Z,12.63
2023-01-30T11:07:31.158Z,9.15
2023-01-30T11:08:34.856Z,9.52
2023-01-30T11:09:46.134Z,9.25
2023-01-30T11:10:49.313Z,11.05
2023-01-30T11:11:54.085Z,12.50
2023-01-30T11:13:00.908Z,11.75
2023-01-30T11:14:07.434Z,10.27
2023-01-30T11:15:10.320Z,12.00
2023-01-30T11:16:13.136Z,12.07
2023-01-30T11:17:18.300Z,13.57
2023-01-30T11:19:45.148Z,11.13
2023-01-30T11:20:57.463Z,10.73
2023-01-30T11:22:06.274Z,11.10
2023-01-30T11:23:23.432Z,12.65
2023-01-30T11:24:45.515Z,13.57
2023-01-30T11:25:56.690Z,12.48
2023-01-30T11:27:21.478Z,10.20
2023-01-30T11:28:26.111Z,11.65
2023-01-30T11:29:35.025Z,11.40
2023-01-30T11:30:37.406Z,12.07
2023-01-30T11:31:41.839Z,10.60
2023-01-30T11:32:47.439Z,9.68
2023-01-30T11:34:01.575Z,10.25
2023-01-30T11:35:06.555Z,10.98
2023-01-30T11:36:26.951Z,10.13
2023-01-30T11:37:37.795Z,9.90
2023-01-30T11:38:59.892Z,12.70
2023-01-30T11:40:17.202Z,12.85
2023-01-30T11:41:21.619Z,12.43
2023-01-30T11:42:32.962Z,14.20
2023-01-30T11:43:37.357Z,11.05
2023-01-30T11:44:42.363Z,9.75
2023-01-30T11:45:49.934Z,10.95
2023-01-30T11:46:52.400Z,11.00
2023-01-30T11:47:59.311Z,13.73
2023-01-30T11:49:47.151Z,11.82
2023-01-30T11:50:46.218Z,11.85
2023-01-30T11:51:54.175Z,11.30
2023-01-30T11:53:02.709Z,11.65
2023-01-30T11:54:08.763Z,11.63
2023-01-30T11:55:16.052Z,11.73
2023-01-30T11:56:33.565Z,10.25
2023-01-30T11:57:45.207Z,12.43
2023-01-30T11:58:58.107Z,12.90
2023-01-30T12:00:00.997Z,12.15
2023-01-30T12:01:04.233Z,12.27
2023-01-30T12:02:20.015Z,12.23
2023-01-30T12:03:25.621Z,12.10
2023-01-30T12:04:28.321Z,11.85
2023-01-30T12:05:34.600Z,9.90
2023-01-30T12:06:39.617Z,13.27
2023-01-30T12:07:46.354Z,11.52
2023-01-30T12:08:52.431Z,14.63
2023-01-30T12:09:55.915Z,11.23
2023-01-30T12:11:01.459Z,11.32
2023-01-30T12:12:24.155Z,10.15
2023-01-30T12:13:31.740Z,10.57
2023-01-30T12:14:44.396Z,11.77
2023-01-30T12:15:52.815Z,10.02
2023-01-30T12:17:19.540Z,12.38
2023-01-30T12:18:36.354Z,10.77
2023-01-30T12:20:12.907Z,12.90
2023-01-30T12:21:41.951Z,10.13
2023-01-30T12:23:11.497Z,11.30
2023-01-30T12:24:42.163Z,13.02
2023-01-30T12:26:12.177Z,11.20
2023-01-30T12:27:48.441Z,11.43
2023-01-30T12:28:56.650Z,16.50
2023-01-30T12:30:10.700Z,12.35
2023-01-30T12:31:25.723Z,14.82
2023-01-30T12:32:31.439Z,11.45
2023-01-30T12:33:35.465Z,13.68
2023-01-30T12:34:37.977Z,12.82
2023-01-30T12:36:24.124Z,12.85
2023-01-30T12:37:57.611Z,11.98
2023-01-30T12:40:24.791Z,12.18
2023-01-30T12:41:45.840Z,12.32
2023-01-30T12:43:26.219Z,13.45
2023-01-30T12:44:57.537Z,12.20
2023-01-30T12:46:27.090Z,15.27
2023-01-30T12:47:50.665Z,13.10
2023-01-30T12:49:11.367Z,15.43
2023-01-30T12:50:20.981Z,14.85
2023-01-30T12:51:54.651Z,16.38
2023-01-30T12:52:57.452Z,14.10
2023-01-30T12:54:19.128Z,12.35
2023-01-30T12:56:03.069Z,15.50
2023-01-30T12:57:14.286Z,13.43
2023-01-30T12:58:37.061Z,14.40
2023-01-30T13:00:05.804Z,12.48
2023-01-30T13:01:33.578Z,16.23
2023-01-30T13:02:41.572Z,12.77
2023-01-30T13:03:55.339Z,15.35
2023-01-30T13:05:44.975Z,15.20
2023-01-30T13:07:01.969Z,15.25
2023-01-30T13:08:29.703Z,14.27
2023-01-30T13:10:09.696Z,16.05
2023-01-30T13:11:39.483Z,14.02
2023-01-30T13:12:51.871Z,17.85
2023-01-30T13:14:01.582Z,20.52
2023-01-30T13:15:20.767Z,17.17
2023-01-30T13:16:52.044Z,15.20
2023-01-30T13:18:15.123Z,15.60
2023-01-30T13:19:50.561Z,15.80
2023-01-30T13:21:09.514Z,15.63
2023-01-30T13:22:24.067Z,16.05
2023-01-30T13:23:38.935Z,18.27
2023-01-30T13:25:24.479Z,18.48
2023-01-30T13:26:37.734Z,17.85
2023-01-30T13:27:44.654Z,19.38
2023-01-30T13:28:51.074Z,14.55
2023-01-30T13:29:54.037Z,17.52
2023-01-30T13:30:57.055Z,20.13
2023-01-30T13:32:03.533Z,17.48
2023-01-30T13:33:13.800Z,15.93
2023-01-30T13:34:38.596Z,16.98
2023-01-30T13:35:50.063Z,17.67
2023-01-30T13:36:56.630Z,17.98
2023-01-30T13:38:00.505Z,17.38
2023-01-30T13:39:14.866Z,16.75
2023-01-30T13:40:25.297Z,21.75
2023-01-30T13:41:35.575Z,18.55
2023-01-30T13:42:53.684Z,16.98
2023-01-30T13:43:56.120Z,18.92
2023-01-30T13:45:00.528Z,18.40
2023-01-30T13:46:07.717Z,20.77
2023-01-30T13:47:42.700Z,16.02
2023-01-30T13:48:57.111Z,18.45
2023-01-30T13:50:14.964Z,17.25
2023-01-30T13:51:19.734Z,16.35
2023-01-30T13:52:34.411Z,17.10
2023-01-30T13:54:02.298Z,16.73
2023-01-30T13:55:34.866Z,18.20
2023-01-30T13:57:00.387Z,18.17
2023-01-30T13:58:14.693Z,16.73
2023-01-30T13:59:29.972Z,18.50
2023-01-30T14:00:33.855Z,17.45
2023-01-30T14:02:03.766Z,16.48
2023-01-30T14:03:06.043Z,17.77
2023-01-30T14:04:43.153Z,18.10
2023-01-30T14:05:51.298Z,19.08
2023-01-30T14:06:53.727Z,16.90
2023-01-30T14:07:56.229Z,18.67
2023-01-30T14:09:01.743Z,18.42
2023-01-30T14:10:09.786Z,17.70
2023-01-30T14:11:34.585Z,17.20
2023-01-30T14:12:52.371Z,16.33
2023-01-30T14:14:00.515Z,15.95
2023-01-30T14:15:08.877Z,17.27
2023-01-30T14:16:11.296Z,17.02
2023-01-30T14:17:16.499Z,19.40
2023-01-30T14:18:23.240Z,16.17
2023-01-30T14:19:34.865Z,17.35
2023-01-30T14:20:46.559Z,16.05
2023-01-30T14:22:00.466Z,15.93
2023-01-30T14:23:05.440Z,14.88
2023-01-30T14:24:22.027Z,14.98
2023-01-30T14:25:29.957Z,15.02
2023-01-30T14:26:47.279Z,16.30
2023-01-30T14:27:59.731Z,14.70
2023-01-30T14:29:01.946Z,15.98
2023-01-30T14:30:32.851Z,17.35
2023-01-30T14:31:46.972Z,12.30
2023-01-30T14:32:54.628Z,14.75
2023-01-30T14:33:56.790Z,15.70
2023-01-30T14:35:01.727Z,14.48
2023-01-30T14:36:07.373Z,14.43
2023-01-30T14:37:34.944Z,16.50
2023-01-30T14:38:39.199Z,14.68
2023-01-30T14:39:51.702Z,14.85
2023-01-30T14:41:02.605Z,14.00
2023-01-30T14:42:24.903Z,15.80
2023-01-30T14:43:37.265Z,14.68
2023-01-30T14:45:15.967Z,13.75
2023-01-30T14:46:18.339Z,14.02
2023-01-30T14:47:33.875Z,15.45
2023-01-30T14:48:56.863Z,14.27